Ashton, IA

3:51 PM CST on January 22, 2017 (GMT -0600)
Sheldon Municipal | | Change Station
Active Advisory: Winter Storm Watch

Elev 1417 ft 43.21 °N, 95.83 °W | Updated 16 minutes ago

Overcast
Overcast
34 °F
Feels Like 24 °F
N
14
Wind Variable Wind from NW

Today
High -- | Low -- °F
--% Chance of Precip.
Yesterday
High -- | Low -- °F
Precip. -- in
Pressure 29.77 in
Visibility 4.0 miles
Clouds Overcast 700 ft
Windchill 24 °F
Dew Point 34 °F
Humidity 100%
Rainfall 0.01 in
Snow Depth Not available.
7:47 AM 5:22 PM
Waning Crescent, 23% visible
METAR KSHL 222135Z AUTO 31012KT 4SM BR OVC007 01/01 A2977 RMK AO2
Pressure 29.77 in
Visibility 4.0 miles
Clouds Overcast 700 ft
Windchill 24 °F
Dew Point 34 °F
Humidity 100%
Rainfall 0.01 in
Snow Depth Not available.
7:47 AM 5:22 PM
Waning Crescent, 23% visible
METAR KSHL 222135Z AUTO 31012KT 4SM BR OVC007 01/01 A2977 RMK AO2

Get Your Daily Forecast Email!

Thanks for signing up!

Be on the lookout for a verification email in your inbox.

You'll start receiving the daily forecast at 8 AM.

×

10-Day Weather Forecast

Almanac

Astronomy

Jan. 22, 2017 Rise Set
Actual Time
Civil Twilight
Nautical Twilight
Astronomical Twilight
Moon
Length of Visible Light
Length of Day
Tomorrow will be .
, % of the Moon is Illuminated

Today's Extremes

State Highs State Lows

Community

WunderPhotos

Upload Photos

1,962,540 photos uploaded!

WunderBlog® & News

Nearby

Air Quality

  Air Quality AQ Index Pollutant
Not available.

Snow Depth

Station Depth Elevation

Earthquake Activity

City Distance Mag. Time & Date
Minimum magnitude displayed is 2.5.

Coastal Water Temperatures

Place Temperature

Stations

Nearby Weather Stations

Station Location Temp. Windchill Dew Point Humidity Wind Precip. Elev Updated Type
                   

Watches & Warnings

Winter Storm Watch
Issued: 2:33 PM CST Jan. 22, 2017 – National Weather Service

... Winter Storm Watch in effect from Tuesday morning through
Wednesday morning...

The National Weather Service in Sioux Falls has issued a Winter
Storm Watch... which is in effect from Tuesday morning through
Wednesday morning.

* Timing... snow is possible from Tuesday morning through Wednesday
morning. The heaviest snows will fall Tuesday afternoon and
evening.

* Snow accumulations... total snow accumulations of 4 to 8 inches
are possible. Isolated higher amounts may be possible.
Uncertainty in the forecast could lead to these numbers changing
into Monday.

* Winds / visibilities... significant reductions in visibility are
possible as northerly winds increase to 20 to 30 mph and gusts
over 30 mph develop Tuesday night.

* Impacts... plan on difficult driving conditions Tuesday as roads
will become snow covered quickly.

Precautionary/preparedness actions...

A Winter Storm Watch means there is potential for significant
snow... sleet or ice accumulations that may impact travel.
Continue to monitor the latest forecasts as this system approaches.